Карточка аэропорта USTR

Внимание!
Информация на этой странице в стадии наполнения.
Если вы не увидели какой-то информации, или заметили неточность - пожалуйста сообщите нам!
Спасибо!
Команда RU-STAFF
Название аэропортаРощино
Название аэропорта (англ.)Roshschino
Превышение378 ft. (115.2 m.)
Координаты57°10.098', 65°19.002'
Высота перехода700m
Эшелон переходаFL040
Коды ответчика5101-5137
Зона ОрВДТюмень РПИ (USTV)
Данные METARUSTR 100200Z 31002MPS CAVOK 19/19 Q1018 R21/CLRD65 R30/CLRD65 NOSIG
Проноз погоды (TAF)USTR 100145Z 1003/1103 35003G08MPS 9999 SCT020 BECMG 1005/1006 03005G12MPS BKN016CB TEMPO 1006/1015 VRB16MPS 3100 -TSRA SQ FM101500 VRB01MPS 4000 BR FEW005 SCT016 TEMPO 1015/1102 0300 FG FU VV002
NOTAMshow/hide NOTAM
AWOS   TABLE

Информация о ВПП

ВПП Длина ВПП (м.) Покрытие Курс ВПП Частота ILS
302704Асфальтобетон301 
213003Асфальтобетон214110.7
122704Асфальтобетон121 
033003Асфальтобетон34108.3

Диспетчерские позиции

Позывной Наименование органа УВД Частота
USTR_TWRТюмень-Старт118.200
USTR_GNDТюмень-Руление119.000
USTR_R_APPТюмень-Круг126.100



Спутниковое изображение